sensor_id;sensor_type;location;lat;lon;timestamp;P1;durP1;ratioP1;P2;durP2;ratioP2
62523;SDS011;53689;56.878;60.672;2022-09-09T00:01:43;12.47;;;5.30;;
62523;SDS011;53689;56.878;60.672;2022-09-09T00:04:21;10.17;;;4.90;;
62523;SDS011;53689;56.878;60.672;2022-09-09T00:06:55;9.75;;;5.00;;
62523;SDS011;53689;56.878;60.672;2022-09-09T00:09:28;9.23;;;4.32;;
62523;SDS011;53689;56.878;60.672;2022-09-09T00:11:58;7.85;;;4.53;;
62523;SDS011;53689;56.878;60.672;2022-09-09T00:14:32;7.50;;;3.88;;
62523;SDS011;53689;56.878;60.672;2022-09-09T00:17:06;9.13;;;4.60;;
62523;SDS011;53689;56.878;60.672;2022-09-09T00:19:39;8.45;;;4.63;;
62523;SDS011;53689;56.878;60.672;2022-09-09T00:22:14;8.77;;;4.30;;
62523;SDS011;53689;56.878;60.672;2022-09-09T00:24:44;9.57;;;4.18;;
62523;SDS011;53689;56.878;60.672;2022-09-09T00:27:15;8.65;;;4.75;;
62523;SDS011;53689;56.878;60.672;2022-09-09T00:29:51;8.88;;;4.45;;
62523;SDS011;53689;56.878;60.672;2022-09-09T00:32:24;7.68;;;4.60;;
62523;SDS011;53689;56.878;60.672;2022-09-09T00:34:57;13.90;;;5.40;;
62523;SDS011;53689;56.878;60.672;2022-09-09T00:37:28;13.20;;;5.45;;
62523;SDS011;53689;56.878;60.672;2022-09-09T00:39:57;11.65;;;5.45;;
62523;SDS011;53689;56.878;60.672;2022-09-09T00:42:30;10.10;;;4.65;;
62523;SDS011;53689;56.878;60.672;2022-09-09T00:45:09;11.35;;;4.78;;
62523;SDS011;53689;56.878;60.672;2022-09-09T00:47:57;9.68;;;4.97;;
62523;SDS011;53689;56.878;60.672;2022-09-09T00:50:35;10.50;;;5.30;;
62523;SDS011;53689;56.878;60.672;2022-09-09T00:53:15;11.27;;;5.93;;
62523;SDS011;53689;56.878;60.672;2022-09-09T00:55:54;10.80;;;5.55;;
62523;SDS011;53689;56.878;60.672;2022-09-09T00:58:28;9.63;;;5.15;;
62523;SDS011;53689;56.878;60.672;2022-09-09T01:00:56;8.48;;;5.25;;
62523;SDS011;53689;56.878;60.672;2022-09-09T01:03:33;8.25;;;4.97;;
62523;SDS011;53689;56.878;60.672;2022-09-09T01:06:11;8.90;;;5.10;;
62523;SDS011;53689;56.878;60.672;2022-09-09T01:11:47;10.68;;;6.30;;
62523;SDS011;53689;56.878;60.672;2022-09-09T01:14:27;8.50;;;5.65;;
62523;SDS011;53689;56.878;60.672;2022-09-09T01:17:04;10.07;;;6.10;;
62523;SDS011;53689;56.878;60.672;2022-09-09T01:19:44;12.40;;;5.97;;
62523;SDS011;53689;56.878;60.672;2022-09-09T01:22:22;12.13;;;6.22;;
62523;SDS011;53689;56.878;60.672;2022-09-09T01:25:19;8.80;;;5.93;;
62523;SDS011;53689;56.878;60.672;2022-09-09T01:27:57;9.13;;;5.75;;
62523;SDS011;53689;56.878;60.672;2022-09-09T01:30:28;9.90;;;6.15;;
62523;SDS011;53689;56.878;60.672;2022-09-09T01:32:58;9.98;;;5.72;;
62523;SDS011;53689;56.878;60.672;2022-09-09T01:35:29;10.98;;;5.93;;
62523;SDS011;53689;56.878;60.672;2022-09-09T01:38:02;10.25;;;6.18;;
62523;SDS011;53689;56.878;60.672;2022-09-09T01:40:30;9.60;;;5.68;;
62523;SDS011;53689;56.878;60.672;2022-09-09T01:43:00;13.00;;;5.97;;
62523;SDS011;53689;56.878;60.672;2022-09-09T01:45:28;11.17;;;6.10;;
62523;SDS011;53689;56.878;60.672;2022-09-09T01:47:56;10.27;;;5.88;;
62523;SDS011;53689;56.878;60.672;2022-09-09T01:50:38;8.93;;;6.15;;
62523;SDS011;53689;56.878;60.672;2022-09-09T01:53:06;8.23;;;5.93;;
62523;SDS011;53689;56.878;60.672;2022-09-09T01:55:37;9.10;;;5.70;;
62523;SDS011;53689;56.878;60.672;2022-09-09T01:58:15;11.57;;;5.85;;
62523;SDS011;53689;56.878;60.672;2022-09-09T02:00:54;10.05;;;5.93;;
62523;SDS011;53689;56.878;60.672;2022-09-09T02:03:29;11.40;;;6.07;;
62523;SDS011;53689;56.878;60.672;2022-09-09T02:06:09;9.57;;;5.88;;
62523;SDS011;53689;56.878;60.672;2022-09-09T02:08:50;11.90;;;6.43;;
62523;SDS011;53689;56.878;60.672;2022-09-09T02:11:22;11.82;;;6.38;;
62523;SDS011;53689;56.878;60.672;2022-09-09T02:14:00;11.88;;;6.57;;
62523;SDS011;53689;56.878;60.672;2022-09-09T02:16:32;13.88;;;6.15;;
62523;SDS011;53689;56.878;60.672;2022-09-09T02:19:06;10.93;;;5.80;;
62523;SDS011;53689;56.878;60.672;2022-09-09T02:21:59;10.05;;;5.40;;
62523;SDS011;53689;56.878;60.672;2022-09-09T02:24:28;10.15;;;5.40;;
62523;SDS011;53689;56.878;60.672;2022-09-09T02:27:19;9.15;;;4.95;;
62523;SDS011;53689;56.878;60.672;2022-09-09T02:29:51;9.60;;;5.00;;
62523;SDS011;53689;56.878;60.672;2022-09-09T02:32:32;7.82;;;5.38;;
62523;SDS011;53689;56.878;60.672;2022-09-09T02:35:05;12.93;;;5.20;;
62523;SDS011;53689;56.878;60.672;2022-09-09T02:37:37;14.57;;;6.50;;
62523;SDS011;53689;56.878;60.672;2022-09-09T02:40:07;8.95;;;4.75;;
62523;SDS011;53689;56.878;60.672;2022-09-09T02:42:41;10.10;;;5.43;;
62523;SDS011;53689;56.878;60.672;2022-09-09T02:45:12;12.40;;;5.70;;
62523;SDS011;53689;56.878;60.672;2022-09-09T02:47:47;8.93;;;5.05;;
62523;SDS011;53689;56.878;60.672;2022-09-09T02:50:22;9.35;;;5.10;;
62523;SDS011;53689;56.878;60.672;2022-09-09T02:52:56;11.15;;;6.72;;
62523;SDS011;53689;56.878;60.672;2022-09-09T02:55:37;9.60;;;5.85;;
62523;SDS011;53689;56.878;60.672;2022-09-09T02:58:08;8.30;;;5.25;;
62523;SDS011;53689;56.878;60.672;2022-09-09T03:00:39;9.43;;;5.30;;
62523;SDS011;53689;56.878;60.672;2022-09-09T03:03:07;8.57;;;4.80;;
62523;SDS011;53689;56.878;60.672;2022-09-09T03:05:36;8.63;;;4.53;;
62523;SDS011;53689;56.878;60.672;2022-09-09T03:08:04;5.40;;;4.20;;
62523;SDS011;53689;56.878;60.672;2022-09-09T03:10:32;12.98;;;6.00;;
62523;SDS011;53689;56.878;60.672;2022-09-09T03:13:00;11.00;;;5.68;;
62523;SDS011;53689;56.878;60.672;2022-09-09T03:15:32;8.40;;;5.60;;
62523;SDS011;53689;56.878;60.672;2022-09-09T03:18:01;10.52;;;6.20;;
62523;SDS011;53689;56.878;60.672;2022-09-09T03:20:29;8.82;;;5.78;;
62523;SDS011;53689;56.878;60.672;2022-09-09T03:22:58;9.48;;;5.50;;
62523;SDS011;53689;56.878;60.672;2022-09-09T03:25:26;11.52;;;5.75;;
62523;SDS011;53689;56.878;60.672;2022-09-09T03:27:54;10.45;;;5.85;;
62523;SDS011;53689;56.878;60.672;2022-09-09T03:30:23;16.55;;;7.93;;
62523;SDS011;53689;56.878;60.672;2022-09-09T03:32:54;23.50;;;9.68;;
62523;SDS011;53689;56.878;60.672;2022-09-09T03:35:28;26.25;;;9.05;;
62523;SDS011;53689;56.878;60.672;2022-09-09T03:37:56;20.95;;;7.45;;
62523;SDS011;53689;56.878;60.672;2022-09-09T03:40:25;27.35;;;9.13;;
62523;SDS011;53689;56.878;60.672;2022-09-09T03:42:53;22.80;;;8.15;;
62523;SDS011;53689;56.878;60.672;2022-09-09T03:45:20;20.40;;;7.85;;
62523;SDS011;53689;56.878;60.672;2022-09-09T03:47:47;19.35;;;7.07;;
62523;SDS011;53689;56.878;60.672;2022-09-09T03:50:15;13.25;;;6.47;;
62523;SDS011;53689;56.878;60.672;2022-09-09T03:52:46;14.32;;;5.82;;
62523;SDS011;53689;56.878;60.672;2022-09-09T03:55:19;12.05;;;6.07;;
62523;SDS011;53689;56.878;60.672;2022-09-09T03:57:46;12.57;;;6.72;;
62523;SDS011;53689;56.878;60.672;2022-09-09T04:00:14;11.32;;;6.10;;
62523;SDS011;53689;56.878;60.672;2022-09-09T04:02:49;11.27;;;7.20;;
62523;SDS011;53689;56.878;60.672;2022-09-09T04:05:17;14.88;;;6.93;;
62523;SDS011;53689;56.878;60.672;2022-09-09T04:07:47;10.55;;;6.90;;
62523;SDS011;53689;56.878;60.672;2022-09-09T04:10:15;10.30;;;6.20;;
62523;SDS011;53689;56.878;60.672;2022-09-09T04:12:42;13.75;;;6.75;;
62523;SDS011;53689;56.878;60.672;2022-09-09T04:15:15;14.98;;;6.82;;
62523;SDS011;53689;56.878;60.672;2022-09-09T04:17:43;13.25;;;6.05;;
62523;SDS011;53689;56.878;60.672;2022-09-09T04:20:10;18.25;;;6.93;;
62523;SDS011;53689;56.878;60.672;2022-09-09T04:22:37;16.30;;;7.38;;
62523;SDS011;53689;56.878;60.672;2022-09-09T04:25:08;11.98;;;7.45;;
62523;SDS011;53689;56.878;60.672;2022-09-09T04:27:35;14.38;;;6.78;;
62523;SDS011;53689;56.878;60.672;2022-09-09T04:30:03;12.68;;;6.43;;
62523;SDS011;53689;56.878;60.672;2022-09-09T04:32:32;10.45;;;6.53;;
62523;SDS011;53689;56.878;60.672;2022-09-09T04:34:59;12.27;;;6.18;;
62523;SDS011;53689;56.878;60.672;2022-09-09T04:37:27;12.75;;;6.65;;
62523;SDS011;53689;56.878;60.672;2022-09-09T04:39:54;12.95;;;6.80;;
62523;SDS011;53689;56.878;60.672;2022-09-09T04:42:23;16.27;;;7.05;;
62523;SDS011;53689;56.878;60.672;2022-09-09T04:44:51;12.35;;;6.80;;
62523;SDS011;53689;56.878;60.672;2022-09-09T04:47:18;13.52;;;6.70;;
62523;SDS011;53689;56.878;60.672;2022-09-09T04:49:45;14.43;;;7.35;;
62523;SDS011;53689;56.878;60.672;2022-09-09T04:52:13;12.55;;;7.03;;
62523;SDS011;53689;56.878;60.672;2022-09-09T04:54:40;15.23;;;6.60;;
62523;SDS011;53689;56.878;60.672;2022-09-09T04:57:09;19.00;;;7.07;;
62523;SDS011;53689;56.878;60.672;2022-09-09T04:59:45;15.75;;;7.00;;
62523;SDS011;53689;56.878;60.672;2022-09-09T05:02:12;15.33;;;5.70;;
62523;SDS011;53689;56.878;60.672;2022-09-09T05:04:40;19.73;;;7.10;;
62523;SDS011;53689;56.878;60.672;2022-09-09T05:07:07;12.63;;;5.80;;
62523;SDS011;53689;56.878;60.672;2022-09-09T05:09:34;10.90;;;6.22;;
62523;SDS011;53689;56.878;60.672;2022-09-09T05:12:03;17.27;;;9.30;;
62523;SDS011;53689;56.878;60.672;2022-09-09T05:14:34;13.98;;;7.60;;
62523;SDS011;53689;56.878;60.672;2022-09-09T05:17:05;13.13;;;7.03;;
62523;SDS011;53689;56.878;60.672;2022-09-09T05:19:34;11.70;;;5.88;;
62523;SDS011;53689;56.878;60.672;2022-09-09T05:22:02;14.77;;;7.45;;
62523;SDS011;53689;56.878;60.672;2022-09-09T05:24:37;16.50;;;6.85;;
62523;SDS011;53689;56.878;60.672;2022-09-09T05:27:05;17.27;;;7.60;;
62523;SDS011;53689;56.878;60.672;2022-09-09T05:29:32;18.45;;;8.43;;
62523;SDS011;53689;56.878;60.672;2022-09-09T05:32:02;21.90;;;8.88;;
62523;SDS011;53689;56.878;60.672;2022-09-09T05:34:32;18.65;;;8.52;;
62523;SDS011;53689;56.878;60.672;2022-09-09T05:37:00;17.20;;;7.20;;
62523;SDS011;53689;56.878;60.672;2022-09-09T05:39:27;14.95;;;6.85;;
62523;SDS011;53689;56.878;60.672;2022-09-09T05:41:55;14.60;;;6.38;;
62523;SDS011;53689;56.878;60.672;2022-09-09T05:44:23;12.88;;;6.55;;
62523;SDS011;53689;56.878;60.672;2022-09-09T05:46:50;19.13;;;8.50;;
62523;SDS011;53689;56.878;60.672;2022-09-09T05:49:19;25.17;;;9.55;;
62523;SDS011;53689;56.878;60.672;2022-09-09T05:54:17;22.02;;;8.20;;
62523;SDS011;53689;56.878;60.672;2022-09-09T05:56:48;14.40;;;7.70;;
62523;SDS011;53689;56.878;60.672;2022-09-09T05:59:18;13.10;;;6.60;;
62523;SDS011;53689;56.878;60.672;2022-09-09T06:01:45;20.30;;;8.10;;
62523;SDS011;53689;56.878;60.672;2022-09-09T06:04:23;21.88;;;9.35;;
62523;SDS011;53689;56.878;60.672;2022-09-09T06:06:51;18.50;;;7.30;;
62523;SDS011;53689;56.878;60.672;2022-09-09T06:11:48;20.45;;;6.38;;
62523;SDS011;53689;56.878;60.672;2022-09-09T06:14:15;17.60;;;6.43;;
62523;SDS011;53689;56.878;60.672;2022-09-09T06:16:45;22.27;;;6.32;;
62523;SDS011;53689;56.878;60.672;2022-09-09T06:19:19;21.45;;;6.70;;
62523;SDS011;53689;56.878;60.672;2022-09-09T06:21:49;20.92;;;7.05;;
62523;SDS011;53689;56.878;60.672;2022-09-09T06:24:16;18.00;;;7.07;;
62523;SDS011;53689;56.878;60.672;2022-09-09T06:26:43;11.57;;;6.75;;
62523;SDS011;53689;56.878;60.672;2022-09-09T06:29:15;18.80;;;8.45;;
62523;SDS011;53689;56.878;60.672;2022-09-09T06:31:43;17.35;;;8.73;;
62523;SDS011;53689;56.878;60.672;2022-09-09T06:34:18;14.45;;;6.18;;
62523;SDS011;53689;56.878;60.672;2022-09-09T06:36:51;18.95;;;6.88;;
62523;SDS011;53689;56.878;60.672;2022-09-09T06:39:18;16.05;;;6.70;;
62523;SDS011;53689;56.878;60.672;2022-09-09T06:41:45;19.77;;;7.03;;
62523;SDS011;53689;56.878;60.672;2022-09-09T06:44:38;23.67;;;9.13;;
62523;SDS011;53689;56.878;60.672;2022-09-09T06:47:11;18.40;;;8.55;;
62523;SDS011;53689;56.878;60.672;2022-09-09T06:49:39;20.38;;;8.75;;
62523;SDS011;53689;56.878;60.672;2022-09-09T06:52:12;17.55;;;9.18;;
62523;SDS011;53689;56.878;60.672;2022-09-09T06:54:40;24.90;;;8.50;;
62523;SDS011;53689;56.878;60.672;2022-09-09T06:57:07;24.48;;;9.45;;
62523;SDS011;53689;56.878;60.672;2022-09-09T06:59:55;28.30;;;9.88;;
62523;SDS011;53689;56.878;60.672;2022-09-09T07:02:23;26.05;;;9.40;;
62523;SDS011;53689;56.878;60.672;2022-09-09T07:04:51;35.70;;;11.93;;
62523;SDS011;53689;56.878;60.672;2022-09-09T07:07:20;37.20;;;11.05;;
62523;SDS011;53689;56.878;60.672;2022-09-09T07:09:48;32.03;;;10.45;;
62523;SDS011;53689;56.878;60.672;2022-09-09T07:12:15;29.08;;;9.23;;
62523;SDS011;53689;56.878;60.672;2022-09-09T07:14:50;33.08;;;8.13;;
62523;SDS011;53689;56.878;60.672;2022-09-09T07:17:18;20.73;;;7.65;;
62523;SDS011;53689;56.878;60.672;2022-09-09T07:19:45;23.38;;;7.78;;
62523;SDS011;53689;56.878;60.672;2022-09-09T07:22:15;46.15;;;11.88;;
62523;SDS011;53689;56.878;60.672;2022-09-09T07:24:44;40.65;;;9.32;;
62523;SDS011;53689;56.878;60.672;2022-09-09T07:27:12;27.38;;;8.70;;
62523;SDS011;53689;56.878;60.672;2022-09-09T07:29:40;30.15;;;9.38;;
62523;SDS011;53689;56.878;60.672;2022-09-09T07:32:09;21.27;;;8.23;;
62523;SDS011;53689;56.878;60.672;2022-09-09T07:34:37;21.13;;;7.80;;
62523;SDS011;53689;56.878;60.672;2022-09-09T07:37:05;18.52;;;7.50;;
62523;SDS011;53689;56.878;60.672;2022-09-09T07:39:33;17.33;;;8.13;;
62523;SDS011;53689;56.878;60.672;2022-09-09T07:42:02;23.77;;;9.88;;
62523;SDS011;53689;56.878;60.672;2022-09-09T07:44:30;24.33;;;10.18;;
62523;SDS011;53689;56.878;60.672;2022-09-09T07:47:04;21.33;;;8.38;;
62523;SDS011;53689;56.878;60.672;2022-09-09T07:49:38;19.95;;;8.02;;
62523;SDS011;53689;56.878;60.672;2022-09-09T07:52:07;17.80;;;7.47;;
62523;SDS011;53689;56.878;60.672;2022-09-09T07:54:39;13.05;;;6.32;;
62523;SDS011;53689;56.878;60.672;2022-09-09T07:57:08;11.55;;;6.30;;
62523;SDS011;53689;56.878;60.672;2022-09-09T07:59:36;13.88;;;6.57;;
62523;SDS011;53689;56.878;60.672;2022-09-09T08:02:04;11.10;;;6.15;;
62523;SDS011;53689;56.878;60.672;2022-09-09T08:07:01;11.57;;;6.05;;
62523;SDS011;53689;56.878;60.672;2022-09-09T08:09:33;18.85;;;7.28;;
62523;SDS011;53689;56.878;60.672;2022-09-09T08:12:14;13.95;;;7.38;;
62523;SDS011;53689;56.878;60.672;2022-09-09T08:14:41;17.50;;;7.27;;
62523;SDS011;53689;56.878;60.672;2022-09-09T08:17:09;16.13;;;7.78;;
62523;SDS011;53689;56.878;60.672;2022-09-09T08:19:37;20.08;;;8.25;;
62523;SDS011;53689;56.878;60.672;2022-09-09T08:22:10;18.95;;;7.95;;
62523;SDS011;53689;56.878;60.672;2022-09-09T08:24:38;18.13;;;7.90;;
62523;SDS011;53689;56.878;60.672;2022-09-09T08:27:07;34.60;;;10.65;;
62523;SDS011;53689;56.878;60.672;2022-09-09T08:29:36;16.90;;;7.97;;
62523;SDS011;53689;56.878;60.672;2022-09-09T08:32:04;15.38;;;7.25;;
62523;SDS011;53689;56.878;60.672;2022-09-09T08:34:32;16.90;;;7.15;;
62523;SDS011;53689;56.878;60.672;2022-09-09T08:37:05;14.43;;;7.25;;
62523;SDS011;53689;56.878;60.672;2022-09-09T08:39:38;16.02;;;6.88;;
62523;SDS011;53689;56.878;60.672;2022-09-09T08:42:14;13.70;;;6.80;;
62523;SDS011;53689;56.878;60.672;2022-09-09T08:44:58;11.88;;;6.15;;
62523;SDS011;53689;56.878;60.672;2022-09-09T08:47:41;7.85;;;4.78;;
62523;SDS011;53689;56.878;60.672;2022-09-09T08:50:19;11.43;;;4.60;;
62523;SDS011;53689;56.878;60.672;2022-09-09T08:52:56;10.35;;;4.68;;
62523;SDS011;53689;56.878;60.672;2022-09-09T08:55:33;10.10;;;3.80;;
62523;SDS011;53689;56.878;60.672;2022-09-09T08:58:10;6.95;;;3.90;;
62523;SDS011;53689;56.878;60.672;2022-09-09T09:00:46;9.70;;;3.75;;
62523;SDS011;53689;56.878;60.672;2022-09-09T09:03:25;9.98;;;5.10;;
62523;SDS011;53689;56.878;60.672;2022-09-09T09:06:01;9.82;;;4.93;;
62523;SDS011;53689;56.878;60.672;2022-09-09T09:08:38;11.00;;;5.03;;
62523;SDS011;53689;56.878;60.672;2022-09-09T09:11:12;10.43;;;4.93;;
62523;SDS011;53689;56.878;60.672;2022-09-09T09:13:40;9.10;;;4.90;;
62523;SDS011;53689;56.878;60.672;2022-09-09T09:16:19;13.45;;;8.10;;
62523;SDS011;53689;56.878;60.672;2022-09-09T09:18:53;12.20;;;8.63;;
62523;SDS011;53689;56.878;60.672;2022-09-09T09:21:25;13.27;;;6.90;;
62523;SDS011;53689;56.878;60.672;2022-09-09T09:23:59;12.68;;;6.03;;
62523;SDS011;53689;56.878;60.672;2022-09-09T09:26:31;9.85;;;6.22;;
62523;SDS011;53689;56.878;60.672;2022-09-09T09:29:03;12.43;;;5.90;;
62523;SDS011;53689;56.878;60.672;2022-09-09T09:31:41;12.63;;;6.70;;
62523;SDS011;53689;56.878;60.672;2022-09-09T09:34:11;17.23;;;7.18;;
62523;SDS011;53689;56.878;60.672;2022-09-09T09:36:40;13.38;;;6.25;;
62523;SDS011;53689;56.878;60.672;2022-09-09T09:39:21;13.07;;;6.45;;
62523;SDS011;53689;56.878;60.672;2022-09-09T09:42:11;11.63;;;6.05;;
62523;SDS011;53689;56.878;60.672;2022-09-09T09:44:42;14.32;;;6.40;;
62523;SDS011;53689;56.878;60.672;2022-09-09T09:47:16;13.38;;;6.53;;
62523;SDS011;53689;56.878;60.672;2022-09-09T09:50:16;14.65;;;6.57;;
62523;SDS011;53689;56.878;60.672;2022-09-09T09:52:53;12.27;;;6.30;;
62523;SDS011;53689;56.878;60.672;2022-09-09T09:55:22;16.08;;;6.43;;
62523;SDS011;53689;56.878;60.672;2022-09-09T09:57:50;11.73;;;6.15;;
62523;SDS011;53689;56.878;60.672;2022-09-09T10:00:19;13.77;;;5.40;;
62523;SDS011;53689;56.878;60.672;2022-09-09T10:03:01;25.58;;;7.57;;
62523;SDS011;53689;56.878;60.672;2022-09-09T10:05:47;23.85;;;6.45;;
62523;SDS011;53689;56.878;60.672;2022-09-09T10:08:16;32.67;;;7.95;;
62523;SDS011;53689;56.878;60.672;2022-09-09T10:10:56;40.58;;;8.80;;
62523;SDS011;53689;56.878;60.672;2022-09-09T10:13:36;47.13;;;9.48;;
62523;SDS011;53689;56.878;60.672;2022-09-09T10:16:17;35.88;;;9.07;;
62523;SDS011;53689;56.878;60.672;2022-09-09T10:18:58;47.33;;;9.75;;
62523;SDS011;53689;56.878;60.672;2022-09-09T10:21:43;25.25;;;9.57;;
62523;SDS011;53689;56.878;60.672;2022-09-09T10:24:37;38.45;;;9.80;;
62523;SDS011;53689;56.878;60.672;2022-09-09T10:27:19;38.03;;;9.82;;
62523;SDS011;53689;56.878;60.672;2022-09-09T10:29:57;34.95;;;10.73;;
62523;SDS011;53689;56.878;60.672;2022-09-09T10:32:36;34.97;;;9.45;;
62523;SDS011;53689;56.878;60.672;2022-09-09T10:35:12;34.45;;;8.80;;
62523;SDS011;53689;56.878;60.672;2022-09-09T10:37:54;28.92;;;10.07;;
62523;SDS011;53689;56.878;60.672;2022-09-09T10:43:37;47.53;;;12.02;;
62523;SDS011;53689;56.878;60.672;2022-09-09T10:46:15;43.55;;;13.00;;
62523;SDS011;53689;56.878;60.672;2022-09-09T10:48:55;35.80;;;12.18;;
62523;SDS011;53689;56.878;60.672;2022-09-09T10:51:39;29.98;;;12.10;;
62523;SDS011;53689;56.878;60.672;2022-09-09T10:54:23;23.98;;;8.05;;
62523;SDS011;53689;56.878;60.672;2022-09-09T10:57:00;32.50;;;11.48;;
62523;SDS011;53689;56.878;60.672;2022-09-09T10:59:31;91.20;;;25.60;;
62523;SDS011;53689;56.878;60.672;2022-09-09T11:02:10;96.35;;;22.88;;
62523;SDS011;53689;56.878;60.672;2022-09-09T11:04:43;168.90;;;36.50;;
62523;SDS011;53689;56.878;60.672;2022-09-09T11:07:18;52.58;;;15.45;;
62523;SDS011;53689;56.878;60.672;2022-09-09T11:12:26;25.52;;;10.00;;
62523;SDS011;53689;56.878;60.672;2022-09-09T11:14:57;29.40;;;10.43;;
62523;SDS011;53689;56.878;60.672;2022-09-09T11:17:33;25.77;;;8.95;;
62523;SDS011;53689;56.878;60.672;2022-09-09T11:20:10;26.63;;;8.45;;
62523;SDS011;53689;56.878;60.672;2022-09-09T11:22:42;38.83;;;9.43;;
62523;SDS011;53689;56.878;60.672;2022-09-09T11:25:15;36.22;;;9.20;;
62523;SDS011;53689;56.878;60.672;2022-09-09T11:27:51;25.08;;;8.95;;
62523;SDS011;53689;56.878;60.672;2022-09-09T11:30:29;21.48;;;7.38;;
62523;SDS011;53689;56.878;60.672;2022-09-09T11:33:35;19.55;;;7.55;;
62523;SDS011;53689;56.878;60.672;2022-09-09T11:42:43;15.48;;;6.65;;
62523;SDS011;53689;56.878;60.672;2022-09-09T11:45:15;16.73;;;7.15;;
62523;SDS011;53689;56.878;60.672;2022-09-09T11:47:52;15.95;;;7.43;;
62523;SDS011;53689;56.878;60.672;2022-09-09T11:50:28;15.18;;;7.68;;
62523;SDS011;53689;56.878;60.672;2022-09-09T11:53:20;18.13;;;7.13;;
62523;SDS011;53689;56.878;60.672;2022-09-09T11:56:04;16.40;;;6.80;;
62523;SDS011;53689;56.878;60.672;2022-09-09T11:58:36;12.38;;;5.80;;
62523;SDS011;53689;56.878;60.672;2022-09-09T12:04:21;13.70;;;5.50;;
62523;SDS011;53689;56.878;60.672;2022-09-09T12:07:00;13.10;;;5.47;;
62523;SDS011;53689;56.878;60.672;2022-09-09T12:09:31;9.75;;;4.55;;
62523;SDS011;53689;56.878;60.672;2022-09-09T12:12:16;8.43;;;4.35;;
62523;SDS011;53689;56.878;60.672;2022-09-09T12:15:00;8.88;;;4.28;;
62523;SDS011;53689;56.878;60.672;2022-09-09T12:17:30;8.13;;;4.03;;
62523;SDS011;53689;56.878;60.672;2022-09-09T12:20:06;9.20;;;4.57;;
62523;SDS011;53689;56.878;60.672;2022-09-09T12:22:43;10.00;;;4.50;;
62523;SDS011;53689;56.878;60.672;2022-09-09T12:25:29;12.48;;;4.80;;
62523;SDS011;53689;56.878;60.672;2022-09-09T12:28:06;8.18;;;4.10;;
62523;SDS011;53689;56.878;60.672;2022-09-09T12:30:43;8.32;;;4.05;;
62523;SDS011;53689;56.878;60.672;2022-09-09T12:33:19;10.25;;;4.40;;
62523;SDS011;53689;56.878;60.672;2022-09-09T12:35:48;10.55;;;5.10;;
62523;SDS011;53689;56.878;60.672;2022-09-09T12:38:22;11.57;;;5.40;;
62523;SDS011;53689;56.878;60.672;2022-09-09T12:40:57;13.05;;;6.55;;
62523;SDS011;53689;56.878;60.672;2022-09-09T12:43:27;18.50;;;6.95;;
62523;SDS011;53689;56.878;60.672;2022-09-09T12:45:56;13.88;;;7.47;;
62523;SDS011;53689;56.878;60.672;2022-09-09T12:48:29;14.27;;;6.88;;
62523;SDS011;53689;56.878;60.672;2022-09-09T12:51:01;15.68;;;7.25;;
62523;SDS011;53689;56.878;60.672;2022-09-09T12:53:31;14.32;;;7.50;;
62523;SDS011;53689;56.878;60.672;2022-09-09T12:56:02;14.60;;;7.15;;
62523;SDS011;53689;56.878;60.672;2022-09-09T12:58:35;16.60;;;7.95;;
62523;SDS011;53689;56.878;60.672;2022-09-09T13:01:04;15.10;;;7.85;;
62523;SDS011;53689;56.878;60.672;2022-09-09T13:03:33;14.43;;;7.17;;
62523;SDS011;53689;56.878;60.672;2022-09-09T13:06:10;13.65;;;7.57;;
62523;SDS011;53689;56.878;60.672;2022-09-09T13:08:39;14.40;;;7.65;;
62523;SDS011;53689;56.878;60.672;2022-09-09T13:11:07;16.42;;;7.50;;
62523;SDS011;53689;56.878;60.672;2022-09-09T13:13:42;15.68;;;7.03;;
62523;SDS011;53689;56.878;60.672;2022-09-09T13:16:20;15.20;;;8.05;;
62523;SDS011;53689;56.878;60.672;2022-09-09T13:18:49;13.98;;;7.63;;
62523;SDS011;53689;56.878;60.672;2022-09-09T13:21:17;13.57;;;7.03;;
62523;SDS011;53689;56.878;60.672;2022-09-09T13:23:49;14.52;;;7.35;;
62523;SDS011;53689;56.878;60.672;2022-09-09T13:26:21;12.85;;;7.00;;
62523;SDS011;53689;56.878;60.672;2022-09-09T13:28:51;14.95;;;7.28;;
62523;SDS011;53689;56.878;60.672;2022-09-09T13:31:20;16.27;;;8.35;;
62523;SDS011;53689;56.878;60.672;2022-09-09T13:33:49;17.10;;;8.27;;
62523;SDS011;53689;56.878;60.672;2022-09-09T13:36:17;16.38;;;8.27;;
62523;SDS011;53689;56.878;60.672;2022-09-09T13:38:55;15.32;;;8.55;;
62523;SDS011;53689;56.878;60.672;2022-09-09T13:41:25;18.10;;;8.52;;
62523;SDS011;53689;56.878;60.672;2022-09-09T13:43:58;16.90;;;8.88;;
62523;SDS011;53689;56.878;60.672;2022-09-09T13:46:29;13.32;;;8.43;;
62523;SDS011;53689;56.878;60.672;2022-09-09T13:49:00;15.75;;;9.10;;
62523;SDS011;53689;56.878;60.672;2022-09-09T13:51:32;16.30;;;7.97;;
62523;SDS011;53689;56.878;60.672;2022-09-09T13:54:01;18.55;;;8.40;;
62523;SDS011;53689;56.878;60.672;2022-09-09T13:56:28;11.52;;;6.93;;
62523;SDS011;53689;56.878;60.672;2022-09-09T13:58:56;10.93;;;5.72;;
62523;SDS011;53689;56.878;60.672;2022-09-09T14:01:24;10.73;;;5.70;;
62523;SDS011;53689;56.878;60.672;2022-09-09T14:03:55;15.32;;;5.20;;
62523;SDS011;53689;56.878;60.672;2022-09-09T14:06:22;14.05;;;6.00;;
62523;SDS011;53689;56.878;60.672;2022-09-09T14:08:50;10.80;;;5.82;;
62523;SDS011;53689;56.878;60.672;2022-09-09T14:11:17;10.65;;;5.53;;
62523;SDS011;53689;56.878;60.672;2022-09-09T14:13:45;10.52;;;5.32;;
62523;SDS011;53689;56.878;60.672;2022-09-09T14:16:14;11.18;;;5.40;;
62523;SDS011;53689;56.878;60.672;2022-09-09T14:18:41;10.30;;;5.20;;
62523;SDS011;53689;56.878;60.672;2022-09-09T14:21:09;8.77;;;4.85;;
62523;SDS011;53689;56.878;60.672;2022-09-09T14:23:36;9.50;;;5.07;;
62523;SDS011;53689;56.878;60.672;2022-09-09T14:26:04;11.40;;;5.47;;
62523;SDS011;53689;56.878;60.672;2022-09-09T14:28:33;12.02;;;5.90;;
62523;SDS011;53689;56.878;60.672;2022-09-09T14:31:22;12.70;;;5.68;;
62523;SDS011;53689;56.878;60.672;2022-09-09T14:33:50;11.48;;;5.28;;
62523;SDS011;53689;56.878;60.672;2022-09-09T14:36:18;10.23;;;5.35;;
62523;SDS011;53689;56.878;60.672;2022-09-09T14:38:45;14.23;;;8.05;;
62523;SDS011;53689;56.878;60.672;2022-09-09T14:41:13;13.80;;;8.93;;
62523;SDS011;53689;56.878;60.672;2022-09-09T14:43:42;14.18;;;9.02;;
62523;SDS011;53689;56.878;60.672;2022-09-09T14:46:11;12.80;;;8.15;;
62523;SDS011;53689;56.878;60.672;2022-09-09T14:48:41;13.48;;;6.75;;
62523;SDS011;53689;56.878;60.672;2022-09-09T14:51:09;14.07;;;6.75;;
62523;SDS011;53689;56.878;60.672;2022-09-09T14:53:38;10.10;;;6.00;;
62523;SDS011;53689;56.878;60.672;2022-09-09T14:56:06;12.18;;;6.47;;
62523;SDS011;53689;56.878;60.672;2022-09-09T15:01:03;14.23;;;6.50;;
62523;SDS011;53689;56.878;60.672;2022-09-09T15:03:32;12.75;;;6.57;;
62523;SDS011;53689;56.878;60.672;2022-09-09T15:06:05;11.95;;;5.95;;
62523;SDS011;53689;56.878;60.672;2022-09-09T15:08:34;12.00;;;6.60;;
62523;SDS011;53689;56.878;60.672;2022-09-09T15:11:08;13.40;;;6.18;;
62523;SDS011;53689;56.878;60.672;2022-09-09T15:13:37;11.02;;;6.38;;
62523;SDS011;53689;56.878;60.672;2022-09-09T15:16:06;17.25;;;6.22;;
62523;SDS011;53689;56.878;60.672;2022-09-09T15:18:35;10.20;;;6.20;;
62523;SDS011;53689;56.878;60.672;2022-09-09T15:21:03;11.38;;;6.50;;
62523;SDS011;53689;56.878;60.672;2022-09-09T15:23:32;11.48;;;6.85;;